UKLR/RWN METAR and TAF weather

Enter ICAO airport designator
Station Type Date Time Source
UKLR METAR 2019/02/18 04:30 UTC NOAA

UKLR 180430Z 28003MPS 9999 OVC035 02/01 Q1023 NOSIG


Station Type Date Time Source
UKLR Decoded METAR 2019/02/18 04:30 UTC NOAA

Rivne, Ukraine (UKLR) 50-35N 026-08E
Feb 17, 2019 - 11:30 PM EST / 2019.02.18 0430 UTC
Wind: from the W (280 degrees) at 7 MPH (6 KT):0
Visibility: greater than 7 mile(s):0
Sky conditions: overcast
Temperature: 35 F (2 C)
Windchill: 28 F (-2 C):1
Dew Point: 33 F (1 C)
Relative Humidity: 93%
Pressure (altimeter): 30.21 in. Hg (1023 hPa)
ob: UKLR 180430Z 28003MPS 9999 OVC035 02/01 Q1023 NOSIG
cycle: 4

Station Type Date Time Source
UKLR TAF 2019/01/25 06:18 UTC NOAA

TAF TAF UKLR 250512Z 2506/2615 09007G12MPS 9999 BKN010
TEMPO 2606/2615 12009G14MPS 2100 -SN BLSN BKN005


Example: see airport list